Time;durP1;ratioP1;P1;durP2;ratioP2;P2;SDS_P1;SDS_P2;PMS_P1;PMS_P2;Temp;Humidity;BMP_temperature;BMP_pressure;BME280_temperature;BME280_humidity;BME280_pressure;Samples;Min_cycle;Max_cycle;Signal;HPM_P1;HPM_P2
2021/05/03 00:00:29;;;;;;;6.75;2.63;;;;;;;16.22;40.47;100449.50;5045676;28;20438;-71
2021/05/03 00:02:56;;;;;;;6.55;2.38;;;;;;;16.10;40.81;100455.63;5047322;28;20121;-72
2021/05/03 00:05:25;;;;;;;6.60;2.22;;;;;;;16.28;41.04;100457.91;5044958;28;20135;-72
2021/05/03 00:07:52;;;;;;;5.40;3.45;;;;;;;16.20;41.49;100459.28;5044903;28;20088;-72
2021/05/03 00:10:19;;;;;;;7.10;2.70;;;;;;;16.20;41.17;100461.94;5043379;28;20041;-72
2021/05/03 00:12:46;;;;;;;6.78;2.72;;;;;;;16.25;40.83;100453.72;5044560;28;20069;-71
2021/05/03 00:15:14;;;;;;;5.63;2.25;;;;;;;16.30;41.51;100464.75;5047302;28;20515;-72
2021/05/03 00:17:41;;;;;;;8.35;2.15;;;;;;;16.11;41.52;100457.31;5044020;28;20698;-71
2021/05/03 00:20:10;;;;;;;4.85;2.40;;;;;;;16.20;41.47;100461.09;5041978;28;22567;-71
2021/05/03 00:22:37;;;;;;;6.47;2.97;;;;;;;15.85;41.99;100458.25;5043615;28;20048;-72
2021/05/03 00:25:04;;;;;;;3.95;2.13;;;;;;;15.93;41.46;100462.06;5045428;28;20075;-72
2021/05/03 00:27:31;;;;;;;6.78;2.47;;;;;;;15.88;41.90;100456.28;5046034;28;20072;-71
2021/05/03 00:29:57;;;;;;;6.05;3.30;;;;;;;15.99;40.99;100450.28;5031623;28;20399;-72
2021/05/03 00:32:24;;;;;;;10.07;3.28;;;;;;;15.91;41.81;100456.03;5045247;28;20043;-72
2021/05/03 00:34:52;;;;;;;6.15;3.45;;;;;;;15.91;42.11;100448.16;5043294;28;20045;-70
2021/05/03 00:37:18;;;;;;;7.13;2.85;;;;;;;15.90;42.27;100448.28;5044290;28;20073;-70
2021/05/03 00:39:45;;;;;;;11.18;3.60;;;;;;;15.64;43.06;100450.88;5042671;28;20041;-70
2021/05/03 00:42:11;;;;;;;6.13;3.22;;;;;;;15.45;43.87;100450.44;5044809;28;20100;-71
2021/05/03 00:44:38;;;;;;;7.70;3.15;;;;;;;15.47;43.72;100453.78;5045257;28;20041;-71
2021/05/03 00:47:04;;;;;;;10.02;3.25;;;;;;;15.50;43.35;100455.34;5047283;28;20118;-73
2021/05/03 00:49:31;;;;;;;4.50;3.30;;;;;;;15.37;43.97;100450.94;5042018;28;20041;-73
2021/05/03 00:51:58;;;;;;;4.82;3.08;;;;;;;15.59;43.26;100452.94;5026923;28;20075;-73
2021/05/03 00:54:24;;;;;;;7.80;3.47;;;;;;;15.54;43.09;100457.66;5043884;28;20144;-74
2021/05/03 00:56:51;;;;;;;9.27;3.75;;;;;;;15.36;43.53;100461.53;5042923;28;20047;-74
2021/05/03 00:59:17;;;;;;;6.70;3.55;;;;;;;15.29;43.17;100471.63;5043855;28;20131;-74
2021/05/03 01:01:44;;;;;;;13.13;4.57;;;;;;;15.29;43.53;100478.66;5046268;28;20511;-72
2021/05/03 01:04:11;;;;;;;13.27;3.17;;;;;;;15.17;44.06;100494.25;5043816;28;20072;-72
2021/05/03 01:06:37;;;;;;;7.15;4.05;;;;;;;15.04;45.54;100508.28;5048031;28;20139;-72
2021/05/03 01:09:05;;;;;;;7.13;3.60;;;;;;;14.79;46.85;100519.50;5045370;28;20068;-72
2021/05/03 01:11:32;;;;;;;6.50;3.35;;;;;;;14.98;46.83;100521.81;5044733;28;20472;-73
2021/05/03 01:13:59;;;;;;;7.30;4.35;;;;;;;15.19;45.91;100523.91;5046240;28;20065;-72
2021/05/03 01:16:26;;;;;;;6.07;3.42;;;;;;;15.08;46.24;100533.41;5041850;28;20137;-72
2021/05/03 01:18:52;;;;;;;6.10;3.10;;;;;;;15.01;46.95;100532.94;5042426;28;20476;-72
2021/05/03 01:21:26;;;;;;;6.53;4.13;;;;;;;14.90;46.29;100535.41;5040052;28;20045;-72
2021/05/03 01:23:53;;;;;;;5.97;4.38;;;;;;;14.85;45.45;100533.06;5046109;28;20049;-72
2021/05/03 01:26:20;;;;;;;7.88;3.83;;;;;;;14.92;45.56;100537.00;5044190;28;20057;-72
2021/05/03 01:28:47;;;;;;;8.93;4.57;;;;;;;15.10;45.74;100547.28;5044814;28;20050;-72
2021/05/03 01:31:14;;;;;;;6.82;3.83;;;;;;;15.10;45.67;100547.28;5046418;28;20499;-72
2021/05/03 01:33:41;;;;;;;4.53;3.25;;;;;;;15.04;45.96;100561.63;5041548;28;20128;-72
2021/05/03 01:36:08;;;;;;;8.38;3.40;;;;;;;14.63;48.05;100558.97;5043584;28;20392;-72
2021/05/03 01:38:35;;;;;;;11.30;4.18;;;;;;;14.55;48.96;100571.72;5044196;28;20515;-72
2021/05/03 01:41:02;;;;;;;12.25;4.18;;;;;;;14.92;48.64;100567.66;5045559;28;20075;-71
2021/05/03 01:43:29;;;;;;;8.27;4.03;;;;;;;15.06;48.77;100565.00;5044585;28;20045;-73
2021/05/03 01:45:58;;;;;;;8.20;3.88;;;;;;;15.04;49.74;100572.13;5044220;28;20124;-73
2021/05/03 01:48:27;;;;;;;6.03;3.72;;;;;;;14.97;51.54;100578.72;5046824;28;20396;-71
2021/05/03 01:50:55;;;;;;;6.82;3.88;;;;;;;14.90;52.27;100580.88;5045105;28;20451;-70
2021/05/03 01:53:23;;;;;;;6.05;3.35;;;;;;;14.88;52.29;100581.91;5044528;28;20473;-70
2021/05/03 01:55:52;;;;;;;11.15;3.80;;;;;;;14.71;52.48;100580.34;5042012;28;20048;-70
2021/05/03 01:58:19;;;;;;;5.55;3.58;;;;;;;14.80;53.75;100582.38;5043181;28;20037;-70
2021/05/03 02:00:45;;;;;;;6.63;4.13;;;;;;;14.69;54.62;100584.81;5046896;28;20033;-70
2021/05/03 02:03:23;;;;;;;8.27;3.42;;;;;;;14.72;55.54;100592.53;5046549;28;20136;-72
2021/05/03 02:05:50;;;;;;;5.55;2.83;;;;;;;14.66;56.31;100599.00;5045102;28;20587;-72
2021/05/03 02:08:17;;;;;;;5.72;2.70;;;;;;;14.49;57.25;100604.44;5044744;28;20099;-72
2021/05/03 02:10:44;;;;;;;4.93;2.80;;;;;;;14.44;57.92;100603.00;5046566;28;20153;-72
2021/05/03 02:13:11;;;;;;;9.70;3.80;;;;;;;14.39;58.12;100603.25;5043448;28;20146;-72
2021/05/03 02:15:38;;;;;;;4.28;3.45;;;;;;;14.33;59.04;100603.63;5041220;28;20145;-73
2021/05/03 02:18:05;;;;;;;6.15;3.25;;;;;;;14.46;59.11;100608.97;5045117;28;20072;-73
2021/05/03 02:20:32;;;;;;;4.50;2.83;;;;;;;14.42;59.35;100609.16;5040172;28;20120;-73
2021/05/03 02:22:59;;;;;;;6.30;4.13;;;;;;;14.27;59.89;100614.47;5042895;28;20330;-73
2021/05/03 02:25:26;;;;;;;5.88;3.85;;;;;;;14.34;59.40;100613.19;5040603;28;20069;-73
2021/05/03 02:27:52;;;;;;;11.82;3.17;;;;;;;14.30;59.54;100635.28;5040833;28;20150;-73
2021/05/03 02:30:19;;;;;;;6.50;2.95;;;;;;;14.46;59.35;100624.72;5042812;28;20542;-71
2021/05/03 02:32:46;;;;;;;4.97;2.58;;;;;;;14.26;60.59;100633.75;5043139;28;20061;-71
2021/05/03 02:35:18;;;;;;;4.93;2.55;;;;;;;14.16;61.63;100642.16;5041395;28;20411;-71
2021/05/03 02:37:48;;;;;;;8.32;3.47;;;;;;;13.90;62.89;100637.59;5044118;28;20045;-70
2021/05/03 02:40:16;;;;;;;6.07;2.35;;;;;;;13.99;62.87;100644.09;5040350;28;20488;-74
2021/05/03 02:42:50;;;;;;;8.63;3.28;;;;;;;13.91;63.36;100657.66;5042601;28;20481;-75
2021/05/03 02:45:17;;;;;;;7.05;3.40;;;;;;;14.01;62.84;100658.81;5041977;28;20124;-75
2021/05/03 02:47:43;;;;;;;5.20;3.58;;;;;;;13.88;63.40;100668.28;5042946;28;20060;-75
2021/05/03 02:50:11;;;;;;;8.20;3.40;;;;;;;13.94;63.04;100670.56;5042368;28;20510;-74
2021/05/03 02:52:38;;;;;;;4.53;3.40;;;;;;;13.86;63.73;100664.91;5042951;28;20037;-75
2021/05/03 02:55:05;;;;;;;5.38;3.55;;;;;;;13.96;63.42;100665.25;5040277;28;20048;-71
2021/05/03 02:57:32;;;;;;;7.00;3.42;;;;;;;13.98;63.50;100669.44;5040642;28;20115;-71
2021/05/03 02:59:58;;;;;;;10.98;3.75;;;;;;;13.86;63.98;100678.03;5040507;28;20144;-72
2021/05/03 03:02:24;;;;;;;3.53;2.50;;;;;;;13.79;64.45;100681.91;5042084;28;20442;-71
2021/05/03 03:04:51;;;;;;;5.78;2.53;;;;;;;13.82;64.42;100681.75;5040207;28;20107;-71
2021/05/03 03:07:17;;;;;;;5.72;3.40;;;;;;;13.76;64.71;100677.69;5044595;28;20068;-72
2021/05/03 03:09:43;;;;;;;5.65;3.63;;;;;;;13.66;64.83;100679.13;5044618;28;20041;-71
2021/05/03 03:12:11;;;;;;;9.38;3.70;;;;;;;13.74;64.56;100673.44;5043102;28;20496;-71
2021/05/03 03:14:38;;;;;;;6.57;3.63;;;;;;;13.47;65.39;100679.28;5039832;28;20099;-72
2021/05/03 03:17:04;;;;;;;10.98;3.83;;;;;;;13.55;64.72;100681.50;5039829;28;20103;-72
2021/05/03 03:19:31;;;;;;;5.80;3.28;;;;;;;13.62;64.33;100680.22;5040269;28;20368;-71
2021/05/03 03:21:57;;;;;;;7.32;4.18;;;;;;;13.67;64.29;100693.06;5040361;28;20048;-71
2021/05/03 03:24:24;;;;;;;5.57;3.22;;;;;;;13.70;64.23;100703.41;5046027;28;20091;-72
2021/05/03 03:26:50;;;;;;;6.40;4.18;;;;;;;13.68;64.36;100705.25;5040054;28;20061;-71
2021/05/03 03:29:16;;;;;;;4.45;3.38;;;;;;;13.55;64.78;100705.09;5041160;28;20033;-72
2021/05/03 03:31:43;;;;;;;10.15;4.75;;;;;;;13.46;65.25;100703.81;5044169;28;20112;-72
2021/05/03 03:34:09;;;;;;;4.55;3.50;;;;;;;13.40;65.59;100701.53;5047197;28;20041;-71
2021/05/03 03:36:36;;;;;;;8.18;4.05;;;;;;;13.47;65.13;100717.75;5044433;28;20037;-72
2021/05/03 03:39:05;;;;;;;9.90;4.38;;;;;;;13.42;65.52;100717.13;5039100;28;20033;-72
2021/05/03 03:41:33;;;;;;;4.78;4.03;;;;;;;13.27;66.07;100716.22;5028289;28;20048;-73
2021/05/03 03:44:03;;;;;;;8.68;3.90;;;;;;;13.11;66.89;100709.16;5041180;28;20077;-72
2021/05/03 03:46:30;;;;;;;5.97;4.63;;;;;;;13.00;67.45;100716.72;5044589;28;20051;-75
2021/05/03 03:48:57;;;;;;;18.33;5.28;;;;;;;13.10;67.38;100711.81;5043985;28;20091;-75
2021/05/03 03:51:24;;;;;;;6.90;4.75;;;;;;;13.21;66.50;100716.50;5042943;28;20045;-75
2021/05/03 03:53:52;;;;;;;10.32;4.90;;;;;;;13.26;66.08;100719.75;5041625;28;20045;-74
2021/05/03 03:56:19;;;;;;;10.07;6.55;;;;;;;13.28;66.17;100728.38;5046082;28;20049;-73
2021/05/03 03:58:45;;;;;;;8.65;5.53;;;;;;;13.27;65.98;100732.78;5043373;28;20102;-72
2021/05/03 04:01:13;;;;;;;5.65;3.97;;;;;;;13.36;65.40;100732.25;5046484;28;20452;-73
2021/05/03 04:03:46;;;;;;;6.05;4.07;;;;;;;13.24;65.56;100734.69;5041999;28;20096;-73
2021/05/03 04:09:23;;;;;;;4.43;3.88;;;;;;;12.89;67.33;100741.72;5019099;28;20073;-73
2021/05/03 04:22:48;;;;;;;8.07;3.13;;;;;;;13.16;65.97;100750.78;5057796;28;20037;-72
2021/05/03 04:25:57;;;;;;;10.20;3.92;;;;;;;13.13;66.16;100760.56;5049609;28;20531;-72
2021/05/03 04:28:05;;;;;;;9.70;3.08;;;;;;;12.98;66.47;100770.91;5042076;28;20087;-74
2021/05/03 04:30:32;;;;;;;3.38;2.65;;;;;;;13.01;66.26;100769.91;5064253;28;20052;-76
2021/05/03 04:32:58;;;;;;;7.80;3.67;;;;;;;12.96;66.30;100777.16;5060605;28;20467;-76
2021/05/03 04:35:25;;;;;;;8.10;3.60;;;;;;;12.94;66.68;100777.22;5064136;28;20044;-73
2021/05/03 04:37:52;;;;;;;5.90;3.80;;;;;;;12.94;66.73;100792.06;5062109;28;20051;-75
2021/05/03 04:40:19;;;;;;;3.28;2.92;;;;;;;12.73;67.41;100787.03;5051087;28;20376;-73
2021/05/03 04:42:45;;;;;;;5.70;2.72;;;;;;;12.96;66.60;100796.31;5062157;28;20107;-73
2021/05/03 04:45:13;;;;;;;12.60;4.93;;;;;;;12.75;66.69;100785.16;5055912;28;20044;-73
2021/05/03 04:47:40;;;;;;;7.20;2.50;;;;;;;12.81;66.95;100797.09;5057869;28;20049;-71
2021/05/03 04:50:08;;;;;;;5.25;2.40;;;;;;;12.70;67.16;100808.09;5053488;28;20492;-71
2021/05/03 04:52:36;;;;;;;5.65;2.95;;;;;;;12.82;66.86;100809.25;5054798;28;20033;-73
2021/05/03 04:55:04;;;;;;;10.20;2.88;;;;;;;12.77;66.94;100811.22;5055579;28;20052;-72
2021/05/03 04:57:31;;;;;;;6.60;2.53;;;;;;;12.85;66.25;100814.34;5041727;28;20037;-71
2021/05/03 04:59:57;;;;;;;5.25;2.70;;;;;;;12.86;66.42;100810.78;5049314;28;20124;-72
2021/05/03 05:02:24;;;;;;;6.00;2.38;;;;;;;12.94;66.02;100815.63;5045717;28;20041;-71
2021/05/03 05:04:50;;;;;;;8.73;3.05;;;;;;;12.85;66.18;100819.56;5050139;28;20049;-72
2021/05/03 05:07:19;;;;;;;5.93;2.83;;;;;;;13.02;65.52;100818.69;5048452;28;20392;-73
2021/05/03 05:09:46;;;;;;;3.22;2.55;;;;;;;12.80;66.68;100822.41;5051645;28;20120;-73
2021/05/03 05:12:16;;;;;;;6.22;2.20;;;;;;;12.94;65.73;100824.31;5050428;28;20045;-72
2021/05/03 05:14:43;;;;;;;3.15;2.60;;;;;;;13.01;66.19;100822.25;5053084;28;20045;-74
2021/05/03 05:17:10;;;;;;;8.88;2.92;;;;;;;12.96;65.87;100827.72;5053858;28;20049;-73
2021/05/03 05:19:37;;;;;;;12.40;3.72;;;;;;;13.10;65.12;100827.00;5052749;28;20037;-73
2021/05/03 05:22:04;;;;;;;8.57;2.53;;;;;;;13.23;64.79;100816.78;5049674;28;20492;-75
2021/05/03 05:24:31;;;;;;;10.73;3.08;;;;;;;13.24;64.49;100816.69;5046890;28;20076;-73
2021/05/03 05:26:57;;;;;;;7.38;2.80;;;;;;;13.34;64.03;100830.16;5050446;28;20045;-76
2021/05/03 05:29:24;;;;;;;8.88;2.85;;;;;;;13.35;63.89;100831.84;5053267;28;20433;-75
2021/05/03 05:31:53;;;;;;;6.97;3.25;;;;;;;13.32;64.00;100835.50;5056965;28;20041;-74
2021/05/03 05:34:19;;;;;;;10.10;3.70;;;;;;;13.36;63.63;100836.16;5053727;28;20055;-75
2021/05/03 05:36:46;;;;;;;11.68;3.63;;;;;;;13.52;63.45;100821.31;5058065;28;20045;-73
2021/05/03 05:39:13;;;;;;;4.57;3.90;;;;;;;13.87;62.05;100832.53;5054189;28;20075;-74
2021/05/03 05:41:40;;;;;;;10.18;3.55;;;;;;;14.05;61.44;100830.69;5048492;28;20064;-73
2021/05/03 05:44:07;;;;;;;10.73;3.85;;;;;;;14.14;61.34;100824.09;5033870;28;20044;-76
2021/05/03 05:46:34;;;;;;;14.77;7.28;;;;;;;14.55;59.70;100831.44;5056109;28;20033;-84
2021/05/03 05:49:01;;;;;;;20.42;8.32;;;;;;;14.84;58.56;100830.59;5053543;28;20060;-75
2021/05/03 05:51:27;;;;;;;10.13;6.88;;;;;;;15.07;57.65;100820.50;5052266;28;20125;-77
2021/05/03 05:53:54;;;;;;;9.55;6.72;;;;;;;14.93;58.38;100818.72;5049739;28;20045;-77
2021/05/03 05:56:21;;;;;;;11.23;6.72;;;;;;;15.15;57.30;100828.78;5049995;28;20049;-77
2021/05/03 05:58:48;;;;;;;15.93;6.90;;;;;;;15.15;57.11;100837.50;5050261;28;20080;-81
2021/05/03 06:01:15;;;;;;;16.77;7.85;;;;;;;15.64;56.06;100837.19;5051719;28;20458;-82
2021/05/03 06:03:42;;;;;;;9.43;8.05;;;;;;;15.62;55.34;100846.94;5026239;28;20072;-85
2021/05/03 06:06:09;;;;;;;15.90;7.35;;;;;;;16.34;54.55;100854.72;5050017;28;20052;-81
2021/05/03 06:08:35;;;;;;;16.83;8.75;;;;;;;16.70;51.89;100852.34;5046451;28;20037;-82
2021/05/03 06:11:03;;;;;;;14.20;7.45;;;;;;;16.80;51.47;100851.78;5048574;28;20447;-83
2021/05/03 06:13:29;;;;;;;13.25;5.43;;;;;;;17.01;49.96;100852.97;5053550;28;20041;-70
2021/05/03 06:15:56;;;;;;;10.68;5.75;;;;;;;17.68;48.57;100858.88;5051701;28;20049;-71
2021/05/03 06:18:22;;;;;;;8.80;3.85;;;;;;;17.79;47.73;100860.81;5051321;28;20090;-73
2021/05/03 06:20:49;;;;;;;7.28;3.95;;;;;;;17.56;48.56;100857.09;5052179;28;20118;-69
2021/05/03 06:23:15;;;;;;;7.28;4.25;;;;;;;17.90;47.57;100860.91;5047333;28;20521;-71
2021/05/03 06:25:43;;;;;;;5.68;3.90;;;;;;;18.20;47.12;100873.66;5050819;28;20056;-71
2021/05/03 06:28:10;;;;;;;12.85;3.97;;;;;;;18.26;47.08;100870.59;5051302;28;20041;-71
2021/05/03 06:30:37;;;;;;;7.22;2.72;;;;;;;18.15;47.70;100872.31;5053421;28;20076;-71
2021/05/03 06:33:04;;;;;;;5.28;3.67;;;;;;;18.40;47.02;100888.06;5042948;28;20034;-70
2021/05/03 06:35:31;;;;;;;6.70;2.28;;;;;;;18.73;46.49;100889.22;5037485;28;20060;-71
2021/05/03 06:37:58;;;;;;;5.13;2.78;;;;;;;18.67;45.61;100889.66;5040635;28;20059;-71
2021/05/03 06:40:24;;;;;;;7.90;3.53;;;;;;;19.01;44.81;100894.13;5039890;28;20116;-70
2021/05/03 06:42:51;;;;;;;5.70;2.70;;;;;;;18.77;44.97;100894.19;5039081;28;20076;-71
2021/05/03 06:45:21;;;;;;;6.60;2.72;;;;;;;18.73;45.35;100890.06;5039872;28;20049;-70
2021/05/03 06:47:50;;;;;;;6.38;3.25;;;;;;;18.74;45.68;100891.75;5043097;28;20554;-70
2021/05/03 06:50:18;;;;;;;4.68;2.03;;;;;;;19.09;44.79;100888.28;5041077;28;20443;-71
2021/05/03 06:52:45;;;;;;;5.72;2.35;;;;;;;18.97;45.07;100891.88;5044055;28;20075;-71
2021/05/03 06:55:14;;;;;;;8.57;2.22;;;;;;;19.13;44.37;100881.81;5042402;28;20041;-71
2021/05/03 06:57:42;;;;;;;5.43;2.10;;;;;;;19.47;43.75;100881.88;5040781;28;20487;-70
2021/05/03 07:00:11;;;;;;;6.20;2.58;;;;;;;19.57;44.22;100891.63;5046466;28;20118;-70
2021/05/03 07:02:39;;;;;;;5.35;1.88;;;;;;;19.67;44.06;100889.16;5042319;28;20083;-70
2021/05/03 07:05:07;;;;;;;4.30;2.55;;;;;;;20.03;43.92;100890.72;5042344;28;20103;-70
2021/05/03 07:07:33;;;;;;;3.72;1.60;;;;;;;19.67;44.33;100897.09;5044824;28;20048;-70
2021/05/03 07:10:00;;;;;;;2.92;2.03;;;;;;;20.76;41.90;100885.72;5043729;28;20079;-71
2021/05/03 07:12:27;;;;;;;5.25;1.90;;;;;;;21.27;40.67;100896.44;5044164;28;20041;-71
2021/05/03 07:14:53;;;;;;;3.33;1.48;;;;;;;20.95;41.00;100901.78;5043920;28;20072;-71
2021/05/03 07:17:19;;;;;;;3.03;2.22;;;;;;;21.34;40.74;100905.56;5039249;28;20090;-69
2021/05/03 07:19:46;;;;;;;3.38;1.75;;;;;;;21.51;39.93;100914.75;5044048;28;20427;-69
2021/05/03 07:22:13;;;;;;;5.60;2.30;;;;;;;21.06;39.79;100914.16;5039680;28;20065;-69
2021/05/03 07:24:41;;;;;;;3.65;2.22;;;;;;;21.21;39.97;100912.03;5046571;28;20569;-69
2021/05/03 07:27:11;;;;;;;5.07;1.85;;;;;;;21.48;39.36;100919.50;5039891;28;20128;-69
2021/05/03 07:29:38;;;;;;;1.45;1.30;;;;;;;21.22;38.78;100925.16;5041397;28;20516;-69
2021/05/03 07:32:05;;;;;;;4.53;1.52;;;;;;;21.56;38.73;100922.31;5041477;28;20124;-69
2021/05/03 07:34:32;;;;;;;5.22;1.38;;;;;;;21.93;37.24;100918.16;5044037;28;20037;-69
2021/05/03 07:36:59;;;;;;;3.53;1.67;;;;;;;21.41;38.56;100922.66;5042234;28;20053;-69
2021/05/03 07:39:25;;;;;;;2.90;1.10;;;;;;;21.29;38.66;100934.25;5040466;28;20079;-69
2021/05/03 07:41:52;;;;;;;3.55;1.30;;;;;;;21.34;38.95;100932.09;5042620;28;20561;-69
2021/05/03 07:44:18;;;;;;;3.50;1.50;;;;;;;21.29;38.67;100938.72;5041334;28;20469;-69
2021/05/03 07:46:45;;;;;;;7.05;1.55;;;;;;;21.35;38.46;100936.44;5039355;28;20496;-69
2021/05/03 07:49:11;;;;;;;1.98;0.98;;;;;;;21.61;38.88;100941.34;5039158;28;20478;-71
2021/05/03 07:51:38;;;;;;;2.00;1.40;;;;;;;21.28;39.57;100948.50;5039810;28;20383;-71
2021/05/03 07:54:05;;;;;;;2.72;1.30;;;;;;;21.45;39.17;100952.41;5038528;28;20076;-69
2021/05/03 07:56:32;;;;;;;4.03;1.60;;;;;;;21.97;38.73;100947.94;5040108;28;20098;-69
2021/05/03 07:59:03;;;;;;;3.03;1.13;;;;;;;22.48;37.85;100939.91;5042436;28;20067;-68
2021/05/03 08:01:29;;;;;;;1.90;1.25;;;;;;;21.97;37.10;100950.59;5043713;28;20048;-68
2021/05/03 08:03:56;;;;;;;1.92;1.38;;;;;;;22.45;36.95;100953.44;5046329;28;20079;-68
2021/05/03 08:06:24;;;;;;;2.22;1.42;;;;;;;22.36;36.82;100964.06;5048513;28;20058;-69
2021/05/03 08:08:50;;;;;;;4.57;1.20;;;;;;;22.48;35.79;100977.09;5044912;28;20131;-69
2021/05/03 08:11:18;;;;;;;2.53;1.52;;;;;;;22.08;36.20;100955.81;5045496;28;20064;-68
2021/05/03 08:13:46;;;;;;;3.78;1.63;;;;;;;22.12;36.35;100956.44;5045087;28;20076;-69
2021/05/03 08:16:18;;;;;;;2.45;1.67;;;;;;;21.86;37.19;100959.50;5045956;28;20041;-69
2021/05/03 08:18:45;;;;;;;4.45;2.38;;;;;;;22.80;36.06;100969.88;5043298;28;20912;-68
2021/05/03 08:21:12;;;;;;;1.73;1.33;;;;;;;23.24;36.58;100960.56;5046176;28;20083;-70
2021/05/03 08:23:42;;;;;;;4.47;1.63;;;;;;;22.96;36.32;100963.09;5044840;28;20037;-70
2021/05/03 08:26:09;;;;;;;2.78;1.55;;;;;;;23.27;35.21;100954.94;5047519;28;20087;-71
2021/05/03 08:28:39;;;;;;;2.00;1.65;;;;;;;22.86;37.24;100951.56;5023474;28;20131;-70
2021/05/03 08:31:06;;;;;;;6.53;2.10;;;;;;;22.94;36.95;100953.56;5039423;28;20041;-68
2021/05/03 08:33:33;;;;;;;3.20;2.22;;;;;;;23.08;37.24;100947.00;5031494;28;20148;-68
2021/05/03 08:35:59;;;;;;;2.90;1.60;;;;;;;22.54;37.07;100956.28;5044744;28;20068;-68
2021/05/03 08:38:26;;;;;;;3.20;1.60;;;;;;;22.92;36.52;100952.88;5045149;28;20044;-68
2021/05/03 08:40:53;;;;;;;4.80;2.20;;;;;;;22.85;36.13;100949.03;5044669;28;20037;-68
2021/05/03 08:43:20;;;;;;;5.80;2.15;;;;;;;23.62;35.79;100962.31;5045334;28;20041;-68
2021/05/03 08:45:48;;;;;;;2.10;1.77;;;;;;;23.24;35.13;100955.22;5042435;28;20549;-68
2021/05/03 08:51:10;;;;;;;6.35;1.90;;;;;;;22.55;36.97;100957.97;5042702;28;20045;-68
2021/05/03 08:53:42;;;;;;;4.43;1.80;;;;;;;23.04;36.03;100965.03;5046465;28;20037;-70
2021/05/03 08:56:10;;;;;;;3.13;1.80;;;;;;;23.35;36.09;100980.84;5044269;28;20550;-70
2021/05/03 08:58:38;;;;;;;3.25;1.98;;;;;;;22.99;36.78;100972.59;5040402;28;20064;-68
2021/05/03 09:01:06;;;;;;;4.05;2.30;;;;;;;22.54;37.48;100978.38;5045164;28;20400;-70
2021/05/03 09:03:40;;;;;;;5.63;2.33;;;;;;;22.90;36.24;100979.56;5046628;28;21376;-69
2021/05/03 09:06:11;;;;;;;3.63;2.35;;;;;;;23.04;36.15;100980.16;5042573;28;20451;-68
2021/05/03 09:08:38;;;;;;;4.85;2.42;;;;;;;22.43;36.61;100987.28;5043519;28;20056;-67
2021/05/03 09:11:04;;;;;;;6.30;2.42;;;;;;;22.67;36.23;100988.75;5046234;28;20068;-68
2021/05/03 09:13:36;;;;;;;8.02;2.50;;;;;;;22.36;35.80;100978.16;5041288;28;20127;-67
2021/05/03 09:16:17;;;;;;;2.85;2.00;;;;;;;22.46;36.83;100984.34;5024259;28;20072;-68
2021/05/03 09:18:44;;;;;;;3.03;2.10;;;;;;;22.14;36.38;100996.97;5045425;28;20407;-70
2021/05/03 09:21:18;;;;;;;5.32;2.00;;;;;;;22.19;36.80;100984.97;5041980;28;20065;-70
2021/05/03 09:24:27;;;;;;;8.18;3.00;;;;;;;22.18;36.54;100975.31;5044822;28;20061;-69
2021/05/03 09:27:04;;;;;;;7.85;3.22;;;;;;;21.55;37.57;100981.66;5044448;28;20495;-69
2021/05/03 09:29:31;;;;;;;6.82;2.13;;;;;;;21.39;38.25;100982.94;5041170;28;20080;-70
2021/05/03 09:32:14;;;;;;;5.03;3.10;;;;;;;20.61;40.00;100983.19;5045564;28;20535;-69
2021/05/03 09:34:48;;;;;;;4.20;2.00;;;;;;;20.75;40.28;100984.72;5041944;28;20037;-69
2021/05/03 09:37:41;;;;;;;5.20;2.75;;;;;;;20.88;39.29;100975.66;5043411;28;20041;-69
2021/05/03 09:40:08;;;;;;;4.50;2.60;;;;;;;20.74;39.41;100983.88;5047779;28;20458;-69
2021/05/03 09:42:49;;;;;;;5.10;2.40;;;;;;;20.56;41.17;100977.41;5024964;28;20064;-69
2021/05/03 09:45:20;;;;;;;6.70;2.83;;;;;;;20.44;40.60;100981.00;5043478;28;20427;-69
2021/05/03 09:47:49;;;;;;;6.70;2.17;;;;;;;20.45;41.46;100972.09;5045608;28;20052;-69
2021/05/03 09:50:22;;;;;;;2.95;1.60;;;;;;;20.69;42.08;100974.63;5043022;28;20521;-69
2021/05/03 09:53:04;;;;;;;4.13;2.70;;;;;;;20.60;40.86;100971.75;5043284;28;20099;-69
2021/05/03 09:55:39;;;;;;;4.43;2.65;;;;;;;20.23;39.96;100979.09;5043476;28;20055;-69
2021/05/03 09:58:28;;;;;;;4.72;2.63;;;;;;;20.70;40.42;100977.16;5043341;28;20037;-69
2021/05/03 10:00:56;;;;;;;3.00;2.20;;;;;;;20.35;41.06;100974.66;5045237;28;20064;-69
2021/05/03 10:03:43;;;;;;;4.30;2.38;;;;;;;20.09;41.04;100966.97;5027669;28;20400;-68
2021/05/03 10:06:16;;;;;;;5.28;3.28;;;;;;;20.02;41.11;100983.44;5042863;28;20043;-69
2021/05/03 10:08:48;;;;;;;6.30;2.42;;;;;;;19.90;42.63;100977.28;5040821;28;20125;-69
2021/05/03 10:11:16;;;;;;;3.25;2.38;;;;;;;19.96;43.80;100970.69;5041817;28;20037;-69
2021/05/03 10:13:48;;;;;;;4.65;2.58;;;;;;;20.16;43.48;100977.91;5046974;28;20052;-69
2021/05/03 10:16:15;;;;;;;9.18;3.05;;;;;;;20.04;44.17;100973.59;5044361;28;20229;-68
2021/05/03 10:18:42;;;;;;;6.22;2.75;;;;;;;20.01;42.63;100976.47;5042901;28;20480;-69
2021/05/03 10:21:13;;;;;;;7.88;2.25;;;;;;;19.93;43.73;100977.06;5042518;28;20064;-69
2021/05/03 10:23:43;;;;;;;3.85;2.53;;;;;;;20.19;42.04;100966.22;5043089;28;20057;-69
2021/05/03 10:26:10;;;;;;;7.88;2.45;;;;;;;20.02;43.05;100956.97;5040824;28;20389;-69
2021/05/03 10:28:54;;;;;;;6.95;2.55;;;;;;;20.08;43.05;100964.41;5043276;28;20112;-69
2021/05/03 10:31:21;;;;;;;4.07;2.10;;;;;;;19.76;42.88;100953.69;5040013;28;20045;-69
2021/05/03 10:33:48;;;;;;;3.60;2.67;;;;;;;20.28;43.76;100955.75;5042464;28;20448;-69
2021/05/03 10:36:32;;;;;;;8.05;2.72;;;;;;;20.07;43.96;100963.59;5040225;28;20067;-69
2021/05/03 10:38:59;;;;;;;4.60;2.63;;;;;;;20.09;44.39;100966.13;5042591;28;20133;-69
2021/05/03 10:41:32;;;;;;;2.83;2.53;;;;;;;19.53;46.18;100958.09;5044740;28;20120;-69
2021/05/03 10:44:24;;;;;;;5.93;2.70;;;;;;;19.81;45.15;100957.66;5042671;28;20095;-68
2021/05/03 10:46:57;;;;;;;3.15;2.85;;;;;;;19.52;45.50;100956.41;5042007;28;20037;-69
2021/05/03 10:49:39;;;;;;;5.63;3.13;;;;;;;19.60;45.78;100949.63;5041360;28;20133;-69
2021/05/03 10:52:12;;;;;;;4.95;2.75;;;;;;;19.87;44.56;100946.63;5044060;28;20129;-68
2021/05/03 10:57:16;;;;;;;5.00;2.83;;;;;;;19.92;42.41;100940.13;5042206;28;20045;-69
2021/05/03 10:59:52;;;;;;;5.85;2.03;;;;;;;20.02;43.32;100941.94;5042891;28;20041;-69
2021/05/03 11:02:20;;;;;;;6.50;2.85;;;;;;;20.09;42.98;100934.38;5040132;28;20541;-69
2021/05/03 11:05:09;;;;;;;10.20;3.92;;;;;;;19.89;43.94;100939.41;5043372;28;20144;-69
2021/05/03 11:08:04;;;;;;;6.47;2.58;;;;;;;20.26;43.31;100928.56;5042530;28;20049;-69
2021/05/03 11:10:53;;;;;;;11.50;3.47;;;;;;;19.93;44.55;100925.97;5040921;28;20045;-69
2021/05/03 11:13:41;;;;;;;13.77;3.60;;;;;;;19.87;43.19;100925.47;5041139;28;20137;-69
2021/05/03 11:16:30;;;;;;;5.65;3.70;;;;;;;19.70;44.27;100917.97;5043330;28;20079;-69
2021/05/03 11:18:59;;;;;;;6.95;3.30;;;;;;;19.59;43.87;100912.69;5040526;28;20389;-70
2021/05/03 11:21:41;;;;;;;5.25;3.35;;;;;;;19.90;42.28;100911.16;5042922;28;20491;-69
2021/05/03 11:24:21;;;;;;;6.88;2.65;;;;;;;20.20;42.43;100910.53;5038863;28;20045;-69
2021/05/03 11:26:53;;;;;;;6.32;2.90;;;;;;;20.10;42.13;100906.94;5041194;28;20061;-68
2021/05/03 11:29:23;;;;;;;5.97;3.67;;;;;;;19.89;41.58;100907.66;5041973;28;20076;-68
2021/05/03 11:31:50;;;;;;;7.65;2.80;;;;;;;20.10;41.74;100905.13;5037582;28;20087;-68
2021/05/03 11:34:24;;;;;;;6.53;3.45;;;;;;;20.07;41.56;100893.94;5044210;28;20371;-68
2021/05/03 11:36:59;;;;;;;11.75;3.63;;;;;;;20.23;41.45;100891.75;5050663;28;20452;-70
2021/05/03 11:42:32;;;;;;;9.52;3.05;;;;;;;20.27;43.69;100895.84;5050999;28;20052;-69
2021/05/03 11:44:57;;;;;;;3.03;2.15;;;;;;;19.80;44.45;100886.38;5053004;28;20511;-70
2021/05/03 11:47:31;;;;;;;7.05;3.33;;;;;;;20.03;43.75;100884.56;5055195;28;20558;-70
2021/05/03 11:49:58;;;;;;;6.10;3.10;;;;;;;20.04;43.01;100884.44;5052670;28;20111;-69
2021/05/03 11:52:26;;;;;;;3.47;2.92;;;;;;;20.00;42.37;100877.72;5058648;28;20037;-70
2021/05/03 11:54:54;;;;;;;5.43;2.88;;;;;;;20.21;42.59;100875.16;5027136;28;20068;-70